Time;durP1;ratioP1;P1;durP2;ratioP2;P2;SDS_P1;SDS_P2;PMS_P1;PMS_P2;Temp;Humidity;BMP_temperature;BMP_pressure;BME280_temperature;BME280_humidity;BME280_pressure;Samples;Min_cycle;Max_cycle;Signal;HPM_P1;HPM_P2
2020/12/27 00:02:11;;;;;;;7.53;1.40;;;8.00;99.90;;;;;;5072022;28;20236;-84
2020/12/27 00:04:38;;;;;;;5.67;1.40;;;8.00;99.90;;;;;;5071692;28;20273;-84
2020/12/27 00:07:07;;;;;;;8.80;1.50;;;8.00;99.90;;;;;;5071957;28;20284;-84
2020/12/27 00:09:34;;;;;;;3.47;1.17;;;8.00;99.90;;;;;;5071585;28;20682;-84
2020/12/27 00:12:00;;;;;;;6.47;1.00;;;8.00;99.90;;;;;;5072001;28;20321;-84
2020/12/27 00:14:27;;;;;;;4.70;1.30;;;8.00;99.90;;;;;;5071484;28;20288;-84
2020/12/27 00:16:54;;;;;;;6.43;1.30;;;8.00;99.90;;;;;;5072257;28;20686;-85
2020/12/27 00:19:20;;;;;;;6.03;1.20;;;8.10;99.90;;;;;;5072197;28;20678;-85
2020/12/27 00:21:47;;;;;;;4.90;1.20;;;8.10;99.90;;;;;;5069328;28;20290;-84
2020/12/27 00:24:13;;;;;;;6.23;1.47;;;8.10;99.90;;;;;;5055645;28;20239;-85
2020/12/27 00:26:40;;;;;;;3.40;1.37;;;8.20;99.90;;;;;;5055111;28;20251;-84
2020/12/27 00:29:06;;;;;;;5.43;1.17;;;8.20;99.90;;;;;;5059893;28;20262;-84
2020/12/27 00:31:33;;;;;;;6.77;1.27;;;8.20;99.90;;;;;;5074519;28;20309;-84
2020/12/27 00:34:00;;;;;;;5.70;0.90;;;8.20;99.90;;;;;;5074894;28;20677;-84
2020/12/27 00:36:26;;;;;;;4.97;0.87;;;8.20;99.90;;;;;;5075112;28;20703;-84
2020/12/27 00:38:53;;;;;;;6.67;1.07;;;8.30;99.90;;;;;;5075008;28;20288;-85
2020/12/27 00:41:24;;;;;;;3.33;1.00;;;8.30;99.90;;;;;;5069713;28;20294;-85
2020/12/27 00:43:51;;;;;;;7.67;1.20;;;8.40;99.90;;;;;;5057014;28;20682;-85
2020/12/27 00:46:17;;;;;;;6.37;1.10;;;8.40;99.90;;;;;;5074671;28;20227;-84
2020/12/27 00:48:44;;;;;;;4.90;1.07;;;8.40;99.90;;;;;;5074895;28;20234;-84
2020/12/27 00:51:11;;;;;;;4.73;1.10;;;8.50;99.90;;;;;;5074639;28;20234;-84
2020/12/27 00:53:38;;;;;;;3.63;0.80;;;8.50;99.90;;;;;;5074355;28;20617;-84
2020/12/27 00:56:04;;;;;;;4.20;0.90;;;8.50;99.90;;;;;;5074857;28;20245;-85
2020/12/27 00:58:31;;;;;;;2.63;1.17;;;8.40;99.90;;;;;;5074521;28;20230;-85
2020/12/27 01:00:59;;;;;;;5.97;1.20;;;8.40;99.90;;;;;;5060432;28;20203;-84
2020/12/27 01:03:25;;;;;;;3.70;0.80;;;8.40;99.90;;;;;;5091044;28;20202;-85
2020/12/27 01:05:52;;;;;;;3.63;0.70;;;8.40;99.90;;;;;;5095050;28;20696;-84
2020/12/27 01:08:19;;;;;;;4.47;0.80;;;8.40;99.90;;;;;;5088682;28;20252;-84
2020/12/27 01:10:46;;;;;;;3.70;0.90;;;8.40;99.90;;;;;;5073694;28;20230;-84
2020/12/27 01:13:13;;;;;;;3.80;0.80;;;8.40;99.90;;;;;;5073872;28;20681;-84
2020/12/27 01:15:40;;;;;;;3.43;0.80;;;8.50;99.90;;;;;;5074017;28;20252;-85
2020/12/27 01:18:07;;;;;;;4.50;0.80;;;8.50;99.90;;;;;;5074413;28;20616;-84
2020/12/27 01:20:33;;;;;;;2.83;0.87;;;8.50;99.90;;;;;;5059627;28;20238;-85
2020/12/27 01:23:00;;;;;;;4.37;0.57;;;8.50;99.90;;;;;;5072748;28;20245;-84
2020/12/27 01:25:27;;;;;;;2.50;0.90;;;8.50;99.90;;;;;;5074246;28;20196;-84
2020/12/27 01:27:54;;;;;;;4.17;0.90;;;8.60;99.90;;;;;;5073138;28;20261;-85
2020/12/27 01:30:20;;;;;;;5.03;0.60;;;8.50;99.90;;;;;;5062925;28;20322;-85
2020/12/27 01:32:47;;;;;;;4.13;0.90;;;8.60;99.90;;;;;;5053767;28;20255;-85
2020/12/27 01:35:13;;;;;;;4.20;1.27;;;8.60;99.90;;;;;;5070609;28;20297;-84
2020/12/27 01:37:41;;;;;;;4.57;0.90;;;8.60;99.90;;;;;;5073975;28;20234;-84
2020/12/27 01:40:08;;;;;;;5.70;1.00;;;8.70;99.90;;;;;;5073829;28;20238;-85
2020/12/27 01:42:35;;;;;;;3.80;0.83;;;8.70;99.90;;;;;;5073914;28;20233;-84
2020/12/27 01:45:02;;;;;;;4.20;0.63;;;8.70;99.90;;;;;;5063285;28;20292;-84
2020/12/27 01:47:33;;;;;;;4.07;1.17;;;8.80;99.90;;;;;;5071492;28;20240;-84
2020/12/27 01:50:00;;;;;;;4.57;1.37;;;8.70;99.90;;;;;;5053940;28;20235;-84
2020/12/27 01:52:27;;;;;;;7.27;1.30;;;8.70;99.90;;;;;;5062644;28;20308;-84
2020/12/27 01:54:53;;;;;;;7.50;1.00;;;8.70;99.90;;;;;;5072554;28;20285;-84
2020/12/27 01:57:21;;;;;;;8.97;1.30;;;8.80;99.90;;;;;;5062287;28;20606;-84
2020/12/27 01:59:51;;;;;;;6.53;1.00;;;8.80;99.90;;;;;;5060119;28;20251;-85
2020/12/27 02:02:19;;;;;;;5.90;1.27;;;8.80;99.90;;;;;;5043730;28;20673;-84
2020/12/27 02:04:46;;;;;;;4.80;1.10;;;8.70;99.90;;;;;;5073420;28;20202;-84
2020/12/27 02:07:13;;;;;;;6.83;1.10;;;8.90;99.90;;;;;;5072260;28;20233;-85
2020/12/27 02:09:39;;;;;;;7.60;1.40;;;8.80;99.90;;;;;;5067259;28;20282;-84
2020/12/27 02:12:08;;;;;;;7.20;1.53;;;8.90;99.90;;;;;;5073378;28;20254;-84
2020/12/27 02:14:36;;;;;;;9.73;1.40;;;8.90;99.90;;;;;;5072648;28;20590;-84
2020/12/27 02:17:05;;;;;;;7.53;1.53;;;8.90;99.90;;;;;;5073129;28;20235;-85
2020/12/27 02:19:32;;;;;;;7.20;1.40;;;9.00;99.90;;;;;;5073035;28;20238;-84
2020/12/27 02:22:00;;;;;;;7.57;1.60;;;8.90;99.90;;;;;;5073379;28;20199;-84
2020/12/27 02:24:27;;;;;;;8.80;1.60;;;9.00;99.90;;;;;;5056574;28;20286;-85
2020/12/27 02:26:58;;;;;;;7.77;1.63;;;8.90;99.90;;;;;;5071383;28;20254;-85
2020/12/27 02:29:26;;;;;;;10.07;1.60;;;9.00;99.90;;;;;;5071875;28;20262;-84
2020/12/27 02:31:53;;;;;;;6.73;1.57;;;9.00;99.90;;;;;;5072757;28;20252;-85
2020/12/27 02:34:20;;;;;;;8.93;1.37;;;9.10;99.90;;;;;;5072479;28;21732;-84
2020/12/27 02:36:47;;;;;;;12.50;1.97;;;9.10;99.90;;;;;;5063608;28;20199;-85
2020/12/27 02:39:15;;;;;;;10.93;1.83;;;9.00;99.90;;;;;;5072194;28;20759;-84
2020/12/27 02:41:42;;;;;;;8.27;1.80;;;9.10;99.90;;;;;;5072222;28;20709;-85
2020/12/27 02:44:10;;;;;;;8.97;1.83;;;9.00;99.90;;;;;;5071627;28;20277;-84
2020/12/27 02:46:36;;;;;;;9.50;1.53;;;9.00;99.90;;;;;;5072544;28;20246;-84
2020/12/27 02:49:04;;;;;;;7.47;1.70;;;9.00;99.90;;;;;;5056339;28;20258;-84
2020/12/27 02:51:30;;;;;;;8.37;1.70;;;9.10;99.90;;;;;;5052598;28;20246;-84
2020/12/27 02:53:58;;;;;;;11.30;2.23;;;9.10;99.90;;;;;;5059499;28;20519;-84
2020/12/27 02:56:26;;;;;;;8.70;2.40;;;9.10;99.90;;;;;;5061858;28;20211;-84
2020/12/27 02:58:54;;;;;;;7.17;1.73;;;9.10;99.90;;;;;;5069801;28;20227;-85
2020/12/27 03:01:21;;;;;;;6.07;1.43;;;9.10;99.90;;;;;;5052410;28;20242;-84
2020/12/27 03:03:48;;;;;;;10.77;1.70;;;9.00;99.90;;;;;;5059313;28;20239;-84
2020/12/27 03:06:14;;;;;;;8.97;1.77;;;9.00;99.90;;;;;;5063227;28;20239;-84
2020/12/27 03:08:41;;;;;;;12.40;1.70;;;9.00;99.90;;;;;;5072322;28;20234;-85
2020/12/27 03:11:08;;;;;;;11.33;2.10;;;9.00;99.90;;;;;;5064428;28;20226;-85
2020/12/27 03:13:34;;;;;;;11.30;2.00;;;9.10;99.90;;;;;;5071808;28;20721;-84
2020/12/27 03:16:04;;;;;;;7.40;1.50;;;9.10;99.90;;;;;;5052286;28;20552;-85
2020/12/27 03:18:31;;;;;;;9.00;1.70;;;9.20;99.90;;;;;;5052042;28;20199;-85
2020/12/27 03:20:58;;;;;;;8.67;2.03;;;9.10;99.90;;;;;;5052060;28;20657;-85
2020/12/27 03:23:25;;;;;;;7.03;1.30;;;9.10;99.90;;;;;;5051865;28;20249;-85
2020/12/27 03:25:51;;;;;;;10.03;1.70;;;9.10;99.90;;;;;;5061753;28;20230;-85
2020/12/27 03:28:18;;;;;;;6.17;1.40;;;9.20;99.90;;;;;;5071951;28;20250;-84
2020/12/27 03:30:44;;;;;;;10.60;1.17;;;9.20;99.90;;;;;;5071823;28;20308;-84
2020/12/27 03:33:12;;;;;;;10.40;1.43;;;9.20;99.90;;;;;;5057195;28;20253;-84
2020/12/27 03:35:38;;;;;;;9.27;1.60;;;9.20;99.90;;;;;;5049724;28;20287;-85
2020/12/27 03:38:04;;;;;;;10.03;1.77;;;9.20;99.90;;;;;;5071421;28;20234;-85
2020/12/27 03:40:31;;;;;;;8.00;1.60;;;9.30;99.90;;;;;;5071182;28;20232;-85
2020/12/27 03:42:58;;;;;;;11.80;1.70;;;9.40;99.90;;;;;;5071809;28;20626;-84
2020/12/27 03:45:25;;;;;;;11.93;2.40;;;9.40;99.90;;;;;;5071270;28;20286;-85
2020/12/27 03:47:54;;;;;;;10.83;2.10;;;9.40;99.90;;;;;;5071675;28;20197;-85
2020/12/27 03:50:22;;;;;;;12.20;1.80;;;9.40;99.90;;;;;;5072234;28;20226;-85
2020/12/27 03:52:48;;;;;;;10.40;2.17;;;9.50;99.90;;;;;;5071448;28;20657;-85
2020/12/27 03:55:17;;;;;;;11.10;1.80;;;9.50;99.90;;;;;;5071771;28;20716;-85
2020/12/27 03:57:43;;;;;;;11.47;2.23;;;9.40;99.90;;;;;;5075663;28;20207;-85
2020/12/27 04:00:10;;;;;;;12.40;1.83;;;9.40;99.90;;;;;;5068036;28;20223;-85
2020/12/27 04:02:36;;;;;;;12.03;2.17;;;9.40;99.90;;;;;;5055678;28;20205;-85
2020/12/27 04:05:03;;;;;;;11.87;2.00;;;9.30;99.90;;;;;;5055663;28;20242;-85
2020/12/27 04:07:32;;;;;;;8.60;2.00;;;9.40;99.90;;;;;;5055392;28;20204;-84
2020/12/27 04:09:59;;;;;;;10.90;1.90;;;9.30;99.90;;;;;;5072364;28;20201;-85
2020/12/27 04:12:26;;;;;;;9.30;2.23;;;9.40;99.90;;;;;;5075592;28;20231;-84
2020/12/27 04:14:58;;;;;;;13.37;2.27;;;9.30;99.90;;;;;;5074819;28;20714;-85
2020/12/27 04:17:24;;;;;;;8.37;1.67;;;9.40;99.90;;;;;;5075828;28;20231;-85
2020/12/27 04:19:51;;;;;;;11.80;2.20;;;9.40;99.90;;;;;;5075665;28;20219;-84
2020/12/27 04:22:17;;;;;;;8.30;1.70;;;9.40;99.90;;;;;;5074776;28;20336;-83
2020/12/27 04:24:45;;;;;;;11.93;2.60;;;9.40;99.90;;;;;;5062406;28;20771;-84
2020/12/27 04:27:11;;;;;;;10.43;1.93;;;9.40;99.90;;;;;;5068242;28;20258;-85
2020/12/27 04:29:38;;;;;;;11.57;2.13;;;9.50;99.90;;;;;;5073718;28;20291;-85
2020/12/27 04:32:04;;;;;;;12.00;2.60;;;9.50;99.90;;;;;;5074380;28;20260;-84
2020/12/27 04:34:31;;;;;;;15.47;2.70;;;9.50;99.90;;;;;;5069699;28;20234;-85
2020/12/27 04:36:57;;;;;;;11.00;2.20;;;9.60;99.90;;;;;;5067744;28;20292;-85
2020/12/27 04:39:24;;;;;;;11.50;2.20;;;9.50;99.90;;;;;;5059014;28;20678;-84
2020/12/27 04:41:51;;;;;;;11.13;1.93;;;9.40;99.90;;;;;;5075924;28;20215;-83
2020/12/27 04:44:18;;;;;;;14.33;2.80;;;9.40;99.90;;;;;;5069731;28;20235;-84
2020/12/27 04:46:45;;;;;;;8.90;2.20;;;9.40;99.90;;;;;;5062893;28;20232;-85
2020/12/27 04:49:12;;;;;;;10.63;2.23;;;9.40;99.90;;;;;;5071865;28;20199;-85
2020/12/27 04:51:39;;;;;;;18.77;3.07;;;9.40;99.90;;;;;;5056720;28;20201;-85
2020/12/27 04:54:06;;;;;;;15.67;2.73;;;9.30;99.90;;;;;;5064055;28;20232;-85
2020/12/27 04:56:36;;;;;;;15.93;2.50;;;9.30;99.90;;;;;;5057009;28;20295;-84
2020/12/27 04:59:03;;;;;;;11.33;2.83;;;9.30;99.90;;;;;;5063774;28;20228;-85
2020/12/27 05:01:30;;;;;;;16.13;3.00;;;9.30;99.90;;;;;;5074905;28;20239;-85
2020/12/27 05:03:56;;;;;;;15.23;2.27;;;9.40;99.90;;;;;;5074324;28;20566;-84
2020/12/27 05:06:23;;;;;;;9.93;2.50;;;9.40;99.90;;;;;;5047879;28;20207;-85
2020/12/27 05:08:50;;;;;;;10.23;2.63;;;9.40;99.90;;;;;;5054424;28;20236;-84
2020/12/27 05:11:17;;;;;;;17.13;2.37;;;9.30;99.90;;;;;;5054438;28;20608;-84
2020/12/27 05:13:45;;;;;;;16.00;2.33;;;9.30;99.90;;;;;;5055834;28;20273;-83
2020/12/27 05:16:14;;;;;;;15.77;2.50;;;9.30;99.90;;;;;;5074023;28;20692;-82
2020/12/27 05:18:42;;;;;;;18.27;3.10;;;9.20;99.90;;;;;;5074332;28;20209;-82
2020/12/27 05:21:10;;;;;;;15.97;2.37;;;9.20;99.90;;;;;;5064589;28;20243;-83
2020/12/27 05:23:36;;;;;;;17.53;2.67;;;9.20;99.90;;;;;;5054316;28;20328;-83
2020/12/27 05:26:06;;;;;;;14.53;2.37;;;9.20;99.90;;;;;;5063333;28;20684;-83
2020/12/27 05:28:34;;;;;;;16.93;2.40;;;9.20;99.90;;;;;;5073605;28;20210;-82
2020/12/27 05:31:10;;;;;;;14.30;2.80;;;9.10;99.90;;;;;;5066495;28;20253;-83
2020/12/27 05:33:39;;;;;;;14.77;2.90;;;9.10;99.90;;;;;;5067459;28;20280;-83
2020/12/27 05:36:06;;;;;;;13.33;2.30;;;9.10;99.90;;;;;;5059037;28;20690;-83
2020/12/27 05:38:33;;;;;;;11.90;2.80;;;9.10;99.90;;;;;;5072642;28;20240;-83
2020/12/27 05:41:01;;;;;;;13.40;2.97;;;9.10;99.90;;;;;;5065133;28;20234;-83
2020/12/27 05:43:28;;;;;;;13.90;2.43;;;9.10;99.90;;;;;;5072982;28;20230;-83
2020/12/27 05:45:57;;;;;;;11.50;2.63;;;9.10;99.90;;;;;;5054377;28;20318;-83
2020/12/27 05:48:24;;;;;;;11.70;2.57;;;9.10;99.90;;;;;;5053612;28;20627;-83
2020/12/27 05:50:52;;;;;;;16.93;2.40;;;9.10;99.90;;;;;;5070577;28;20231;-83
2020/12/27 05:53:20;;;;;;;15.47;2.40;;;9.10;99.90;;;;;;5073335;28;20307;-83
2020/12/27 05:55:48;;;;;;;17.10;2.80;;;9.10;99.90;;;;;;5074045;28;20248;-83
2020/12/27 05:58:20;;;;;;;17.20;2.47;;;9.10;99.90;;;;;;5072790;28;20243;-83
2020/12/27 06:00:52;;;;;;;13.53;2.60;;;9.10;99.90;;;;;;5086444;28;20244;-83
2020/12/27 06:03:20;;;;;;;10.97;2.20;;;9.20;99.90;;;;;;5081782;28;20601;-83
2020/12/27 06:06:35;;;;;;;11.13;2.30;;;9.20;99.90;;;;;;5073942;28;20232;-83
2020/12/27 06:09:09;;;;;;;11.63;2.20;;;9.30;99.90;;;;;;5028468;28;20232;-83
2020/12/27 06:11:53;;;;;;;10.70;2.27;;;9.30;99.90;;;;;;5071891;28;20203;-84
2020/12/27 06:14:40;;;;;;;11.67;2.47;;;9.30;99.90;;;;;;5066509;28;20242;-84
2020/12/27 06:17:14;;;;;;;11.67;2.50;;;9.30;99.90;;;;;;5072780;28;20571;-83
2020/12/27 06:19:56;;;;;;;11.57;2.00;;;9.30;99.90;;;;;;5056707;28;20579;-83
2020/12/27 06:22:27;;;;;;;14.83;2.50;;;9.30;99.90;;;;;;5072292;28;20195;-83
2020/12/27 06:24:57;;;;;;;12.33;2.70;;;9.40;99.90;;;;;;5073066;28;20234;-84
2020/12/27 06:27:27;;;;;;;11.13;1.93;;;9.40;99.90;;;;;;5073280;28;20225;-83
2020/12/27 06:29:58;;;;;;;16.43;2.17;;;9.40;99.90;;;;;;5068241;28;20772;-83
2020/12/27 06:32:28;;;;;;;9.77;2.20;;;9.40;99.90;;;;;;5071864;28;20256;-83
2020/12/27 06:34:54;;;;;;;10.40;2.53;;;9.40;99.90;;;;;;5060042;28;20312;-82
2020/12/27 06:37:21;;;;;;;17.83;2.80;;;9.40;99.90;;;;;;5057416;28;20326;-82
2020/12/27 06:39:48;;;;;;;11.13;2.73;;;9.40;99.90;;;;;;5053371;28;20703;-82
2020/12/27 06:42:18;;;;;;;15.00;2.13;;;9.40;99.90;;;;;;5072377;28;20822;-83
2020/12/27 06:44:46;;;;;;;14.63;2.30;;;9.40;99.90;;;;;;5062380;28;20196;-82
2020/12/27 06:47:13;;;;;;;12.67;2.23;;;9.40;99.90;;;;;;5052657;28;20361;-83
2020/12/27 06:49:40;;;;;;;15.10;2.77;;;9.40;99.90;;;;;;5072223;28;20237;-83
2020/12/27 06:52:20;;;;;;;14.90;2.60;;;9.40;99.90;;;;;;5072541;28;20306;-83
2020/12/27 06:54:48;;;;;;;14.53;2.47;;;9.40;99.90;;;;;;5072837;28;20637;-83
2020/12/27 06:57:41;;;;;;;12.10;2.60;;;9.40;99.90;;;;;;5064463;28;20650;-82
2020/12/27 07:00:21;;;;;;;13.07;2.47;;;9.50;99.90;;;;;;5065037;28;20201;-83
2020/12/27 07:02:49;;;;;;;12.03;2.20;;;9.50;99.90;;;;;;5072415;28;20562;-83
2020/12/27 07:05:33;;;;;;;10.80;2.70;;;9.50;99.90;;;;;;5069078;28;20227;-82
2020/12/27 07:08:02;;;;;;;10.87;2.13;;;9.50;99.90;;;;;;5065318;28;20209;-83
2020/12/27 07:10:30;;;;;;;6.20;1.90;;;9.50;99.90;;;;;;5072102;28;20201;-83
2020/12/27 07:13:04;;;;;;;7.17;1.70;;;9.60;99.90;;;;;;5072465;28;20313;-82
2020/12/27 07:15:30;;;;;;;13.33;2.03;;;9.60;99.90;;;;;;5072066;28;20282;-84
2020/12/27 07:18:08;;;;;;;10.97;2.17;;;9.60;99.90;;;;;;5072475;28;20251;-83
2020/12/27 07:20:38;;;;;;;8.93;2.33;;;9.60;99.90;;;;;;5062625;28;20199;-83
2020/12/27 07:23:11;;;;;;;10.77;2.07;;;9.60;99.90;;;;;;5066312;28;20254;-82
2020/12/27 07:25:43;;;;;;;11.53;2.50;;;9.60;99.90;;;;;;5071989;28;20342;-82
2020/12/27 07:28:12;;;;;;;11.20;2.00;;;9.60;99.90;;;;;;5072126;28;20226;-82
2020/12/27 07:30:39;;;;;;;10.47;2.23;;;9.50;99.90;;;;;;5070765;28;20662;-82
2020/12/27 07:33:13;;;;;;;8.67;2.20;;;9.50;99.90;;;;;;5071468;28;20273;-82
2020/12/27 07:35:40;;;;;;;14.33;2.37;;;9.50;99.90;;;;;;5071830;28;20232;-82
2020/12/27 07:38:08;;;;;;;10.40;2.17;;;9.60;99.90;;;;;;5071980;28;20201;-82
2020/12/27 07:40:36;;;;;;;15.00;2.80;;;9.60;99.90;;;;;;5072144;28;20214;-83
2020/12/27 07:43:09;;;;;;;12.50;2.33;;;9.50;99.90;;;;;;5067389;28;20697;-82
2020/12/27 07:45:37;;;;;;;14.53;2.70;;;9.50;99.90;;;;;;5068718;28;20691;-83
2020/12/27 07:48:04;;;;;;;12.30;2.27;;;9.50;99.90;;;;;;5071865;28;20298;-84
2020/12/27 07:50:31;;;;;;;13.93;2.47;;;9.40;99.90;;;;;;5072171;28;20311;-83
2020/12/27 07:52:59;;;;;;;12.10;2.93;;;9.40;99.90;;;;;;5071973;28;20236;-84
2020/12/27 07:55:28;;;;;;;15.50;2.57;;;9.30;99.90;;;;;;5071861;28;20294;-82
2020/12/27 07:57:56;;;;;;;10.20;2.57;;;9.40;99.90;;;;;;5071386;28;20239;-83
2020/12/27 08:00:24;;;;;;;11.13;2.07;;;9.40;99.90;;;;;;5066077;28;20305;-83
2020/12/27 08:02:51;;;;;;;14.70;2.57;;;9.40;99.90;;;;;;5069195;28;20227;-83
2020/12/27 08:05:18;;;;;;;12.53;2.43;;;9.40;99.90;;;;;;5059230;28;20694;-82
2020/12/27 08:07:45;;;;;;;17.33;3.40;;;9.40;99.90;;;;;;5053864;28;20267;-82
2020/12/27 08:10:19;;;;;;;12.87;3.33;;;9.40;99.90;;;;;;5051976;28;20231;-83
2020/12/27 08:12:50;;;;;;;14.37;3.23;;;9.40;99.90;;;;;;5051361;28;20256;-82
2020/12/27 08:15:16;;;;;;;12.57;3.23;;;9.40;99.90;;;;;;5054656;28;20231;-82
2020/12/27 08:18:02;;;;;;;13.07;2.70;;;9.40;99.90;;;;;;5051693;28;20232;-82
2020/12/27 08:20:30;;;;;;;10.47;2.37;;;9.50;99.90;;;;;;5066883;28;20232;-82
2020/12/27 08:23:05;;;;;;;10.63;2.53;;;9.50;99.90;;;;;;5070903;28;20225;-82
2020/12/27 08:25:33;;;;;;;11.63;2.10;;;9.50;99.90;;;;;;5051874;28;20231;-82
2020/12/27 08:28:00;;;;;;;11.10;2.87;;;9.50;99.90;;;;;;5051268;28;20255;-83
2020/12/27 08:30:28;;;;;;;10.20;2.30;;;9.50;99.90;;;;;;5066707;28;20270;-82
2020/12/27 08:33:20;;;;;;;12.60;2.13;;;9.50;99.90;;;;;;5070838;28;20259;-82
2020/12/27 08:35:49;;;;;;;10.13;1.90;;;9.50;99.90;;;;;;5071330;28;20244;-82
2020/12/27 08:38:26;;;;;;;13.23;2.43;;;9.50;99.90;;;;;;5071792;28;20241;-81
2020/12/27 08:41:07;;;;;;;14.87;3.17;;;9.40;99.90;;;;;;5053611;28;20196;-82
2020/12/27 08:43:58;;;;;;;10.43;2.07;;;9.40;99.90;;;;;;5055414;28;20232;-81
2020/12/27 08:46:30;;;;;;;12.23;2.80;;;9.40;99.90;;;;;;5071989;28;20282;-81
2020/12/27 08:49:04;;;;;;;11.63;2.73;;;9.50;99.90;;;;;;5075111;28;20634;-81
2020/12/27 08:51:36;;;;;;;12.33;2.40;;;9.50;99.90;;;;;;5074869;28;20202;-81
2020/12/27 08:54:06;;;;;;;10.87;3.07;;;9.50;99.90;;;;;;5073977;28;20250;-81
2020/12/27 08:56:34;;;;;;;12.97;2.37;;;9.50;99.90;;;;;;5074986;28;20235;-81
2020/12/27 08:59:00;;;;;;;13.47;2.83;;;9.40;99.90;;;;;;5073176;28;20243;-81
2020/12/27 09:01:29;;;;;;;12.13;2.10;;;9.40;99.90;;;;;;5060527;28;20239;-81
2020/12/27 09:03:55;;;;;;;9.80;2.40;;;9.50;99.90;;;;;;5072649;28;20615;-81
2020/12/27 09:06:23;;;;;;;10.87;2.40;;;9.40;99.90;;;;;;5071000;28;20243;-81
2020/12/27 09:08:58;;;;;;;13.37;3.10;;;9.40;99.90;;;;;;5054631;28;20235;-81
2020/12/27 09:11:24;;;;;;;19.47;3.83;;;9.50;99.90;;;;;;5057610;28;20222;-82
2020/12/27 09:13:51;;;;;;;13.80;2.43;;;9.50;99.90;;;;;;5069797;28;20298;-81
2020/12/27 09:16:32;;;;;;;15.50;3.47;;;9.40;99.90;;;;;;5065503;28;20235;-82
2020/12/27 09:19:08;;;;;;;10.17;2.30;;;9.50;99.90;;;;;;5057950;28;20242;-82
2020/12/27 09:21:41;;;;;;;13.53;2.13;;;9.50;99.90;;;;;;5061243;28;20697;-82
2020/12/27 09:24:14;;;;;;;10.70;2.50;;;9.60;99.90;;;;;;5055405;28;20671;-81
2020/12/27 09:26:41;;;;;;;7.83;2.27;;;9.60;99.90;;;;;;5074182;28;20248;-82
2020/12/27 09:29:15;;;;;;;12.03;2.20;;;9.60;99.90;;;;;;5073362;28;20769;-81
2020/12/27 09:31:42;;;;;;;12.73;2.70;;;9.60;99.90;;;;;;5074077;28;20203;-82
2020/12/27 09:34:08;;;;;;;12.97;2.17;;;9.60;99.90;;;;;;5065961;28;20279;-81
2020/12/27 09:36:36;;;;;;;12.37;2.70;;;9.60;99.90;;;;;;5054320;28;20241;-82
2020/12/27 09:39:03;;;;;;;10.97;2.10;;;9.60;99.90;;;;;;5054344;28;20639;-81
2020/12/27 09:41:36;;;;;;;13.30;3.03;;;9.70;99.90;;;;;;5065199;28;20254;-81
2020/12/27 09:44:03;;;;;;;12.30;2.63;;;9.60;99.90;;;;;;5074436;28;20247;-81
2020/12/27 09:46:44;;;;;;;10.87;2.40;;;9.70;99.90;;;;;;5073239;28;20242;-81
2020/12/27 09:49:21;;;;;;;9.80;2.40;;;9.60;99.90;;;;;;5054059;28;20202;-81
2020/12/27 09:52:02;;;;;;;11.03;2.77;;;9.70;99.90;;;;;;5054218;28;20204;-81
2020/12/27 09:54:30;;;;;;;12.97;2.80;;;9.70;99.90;;;;;;5059956;28;20715;-81
2020/12/27 09:56:57;;;;;;;11.20;2.93;;;9.70;99.90;;;;;;5074295;28;20572;-81
2020/12/27 09:59:24;;;;;;;11.10;1.83;;;9.80;99.90;;;;;;5073405;28;20230;-81
2020/12/27 10:01:50;;;;;;;12.37;2.20;;;9.70;99.90;;;;;;5073817;28;20328;-80
2020/12/27 10:04:17;;;;;;;13.67;2.50;;;9.70;99.90;;;;;;5068637;28;20234;-79
2020/12/27 10:06:43;;;;;;;12.80;2.20;;;9.70;99.90;;;;;;5074024;28;20237;-80
2020/12/27 10:09:10;;;;;;;13.43;2.93;;;9.70;99.90;;;;;;5073933;28;20242;-81
2020/12/27 10:11:37;;;;;;;12.73;2.20;;;9.70;99.90;;;;;;5073952;28;20241;-81
2020/12/27 10:14:03;;;;;;;8.67;2.10;;;9.80;99.90;;;;;;5069486;28;20232;-84
2020/12/27 10:16:30;;;;;;;9.03;2.33;;;9.80;99.90;;;;;;5071581;28;20286;-80
2020/12/27 10:18:56;;;;;;;14.50;2.77;;;9.80;99.90;;;;;;5058771;28;20230;-80
2020/12/27 10:21:22;;;;;;;12.83;2.20;;;9.80;99.90;;;;;;5068024;28;20238;-80
2020/12/27 10:23:49;;;;;;;11.80;2.80;;;9.80;99.90;;;;;;5056333;28;20232;-80
2020/12/27 10:26:16;;;;;;;12.83;3.23;;;9.80;99.90;;;;;;5063545;28;20691;-80
2020/12/27 10:28:43;;;;;;;12.10;2.80;;;9.80;99.90;;;;;;5059214;28;20258;-80
2020/12/27 10:31:10;;;;;;;4.00;0.90;;;9.80;99.90;;;;;;5073072;28;20605;-79
2020/12/27 10:33:36;;;;;;;2.73;0.67;;;9.20;99.90;;;;;;5073496;28;20320;-81
2020/12/27 10:36:03;;;;;;;1.30;0.80;;;8.30;99.90;;;;;;5053211;28;20313;-81
2020/12/27 10:38:29;;;;;;;3.13;1.03;;;7.50;99.90;;;;;;5053024;28;20237;-81
2020/12/27 10:40:56;;;;;;;3.03;1.07;;;7.20;99.90;;;;;;5058272;28;20240;-81
2020/12/27 10:43:23;;;;;;;4.67;1.83;;;7.10;99.90;;;;;;5068578;28;20286;-81
2020/12/27 10:45:49;;;;;;;4.60;1.57;;;7.10;99.90;;;;;;5066216;28;20344;-80
2020/12/27 10:48:16;;;;;;;1.97;1.10;;;7.10;99.90;;;;;;5071740;28;20233;-80
2020/12/27 10:50:42;;;;;;;2.73;1.00;;;7.10;99.90;;;;;;5071314;28;20246;-80
2020/12/27 10:53:08;;;;;;;1.97;0.90;;;7.10;99.90;;;;;;5072502;28;20266;-80
2020/12/27 10:55:35;;;;;;;2.37;1.00;;;7.20;99.90;;;;;;5072541;28;20678;-80
2020/12/27 10:58:01;;;;;;;2.03;0.90;;;7.30;99.90;;;;;;5072589;28;20247;-80
2020/12/27 11:00:29;;;;;;;3.67;1.00;;;7.30;99.90;;;;;;5073943;28;20241;-80
2020/12/27 11:02:56;;;;;;;3.60;1.30;;;7.30;99.90;;;;;;5072068;28;20191;-80
2020/12/27 11:05:22;;;;;;;3.10;2.00;;;7.30;99.90;;;;;;5072017;28;20640;-79
2020/12/27 11:07:48;;;;;;;4.67;2.10;;;7.40;99.90;;;;;;5070588;28;20226;-80
2020/12/27 11:10:15;;;;;;;4.47;2.40;;;7.40;99.90;;;;;;5067494;28;20234;-80
2020/12/27 11:12:41;;;;;;;3.13;1.93;;;7.40;99.90;;;;;;5072147;28;20324;-80
2020/12/27 11:15:08;;;;;;;4.13;2.27;;;7.50;99.90;;;;;;5072066;28;20229;-80
2020/12/27 11:17:36;;;;;;;2.57;2.00;;;7.50;99.90;;;;;;5053289;28;20266;-80
2020/12/27 11:20:02;;;;;;;4.33;1.73;;;7.50;99.90;;;;;;5071058;28;20228;-80
2020/12/27 11:22:35;;;;;;;2.80;1.80;;;7.50;99.90;;;;;;5070446;28;20606;-80
2020/12/27 11:25:02;;;;;;;4.73;2.10;;;7.50;99.90;;;;;;5068555;28;20292;-80
2020/12/27 11:27:28;;;;;;;4.93;3.37;;;7.60;99.90;;;;;;5053617;28;20257;-81
2020/12/27 11:29:55;;;;;;;7.53;5.30;;;7.70;99.90;;;;;;5070887;28;20311;-81
2020/12/27 11:32:22;;;;;;;8.00;5.20;;;7.70;99.90;;;;;;5068002;28;20194;-81
2020/12/27 11:34:49;;;;;;;6.17;3.63;;;7.70;99.90;;;;;;5067534;28;20225;-81
2020/12/27 11:37:16;;;;;;;4.83;3.47;;;7.80;99.90;;;;;;5063455;28;20295;-81
2020/12/27 11:39:43;;;;;;;4.23;3.53;;;7.80;99.90;;;;;;5071911;28;20229;-80
2020/12/27 11:42:09;;;;;;;5.80;3.47;;;7.80;99.90;;;;;;5072138;28;20210;-80
2020/12/27 11:44:36;;;;;;;6.03;3.67;;;7.80;99.90;;;;;;5070387;28;20210;-81
2020/12/27 11:47:03;;;;;;;4.47;2.77;;;7.80;99.90;;;;;;5067352;28;20226;-80
2020/12/27 11:49:30;;;;;;;4.97;2.60;;;7.90;99.90;;;;;;5067058;28;20230;-80
2020/12/27 11:51:57;;;;;;;3.80;1.97;;;8.10;99.90;;;;;;5058288;28;20230;-81
2020/12/27 11:54:23;;;;;;;5.57;2.40;;;8.20;99.90;;;;;;5062511;28;20318;-80
2020/12/27 11:56:53;;;;;;;3.83;2.33;;;8.30;99.90;;;;;;5052532;28;20282;-79
2020/12/27 11:59:20;;;;;;;4.07;1.90;;;8.30;99.90;;;;;;5067042;28;20286;-79
2020/12/27 12:01:46;;;;;;;3.77;2.27;;;8.40;99.90;;;;;;5091849;28;20695;-79
2020/12/27 12:04:13;;;;;;;4.67;2.03;;;8.40;99.90;;;;;;5071033;28;20403;-79
2020/12/27 12:06:39;;;;;;;7.17;2.60;;;8.50;99.90;;;;;;5070029;28;20222;-79
2020/12/27 12:09:06;;;;;;;6.77;2.30;;;8.50;99.90;;;;;;5071709;28;20241;-79
2020/12/27 12:11:33;;;;;;;4.80;1.77;;;8.50;99.90;;;;;;5071040;28;20741;-80
2020/12/27 12:14:00;;;;;;;4.90;2.17;;;8.40;99.90;;;;;;5071697;28;20223;-80
2020/12/27 12:16:29;;;;;;;5.47;2.60;;;8.40;99.90;;;;;;5053977;28;20227;-80
2020/12/27 12:18:56;;;;;;;5.77;2.70;;;8.40;99.90;;;;;;5064316;28;20202;-79
2020/12/27 12:21:22;;;;;;;2.97;1.70;;;8.40;99.90;;;;;;5070795;28;20271;-79
2020/12/27 12:23:48;;;;;;;2.60;1.90;;;8.40;99.90;;;;;;5075571;28;20233;-79
2020/12/27 12:26:19;;;;;;;3.07;1.80;;;8.40;99.90;;;;;;5063164;28;20266;-79
2020/12/27 12:28:46;;;;;;;3.57;1.60;;;8.50;99.90;;;;;;5072253;28;20222;-79
2020/12/27 12:31:13;;;;;;;4.00;1.60;;;8.70;99.90;;;;;;5067766;28;20249;-80
2020/12/27 12:33:39;;;;;;;3.17;1.20;;;8.70;99.90;;;;;;5074450;28;20226;-80
2020/12/27 12:36:07;;;;;;;3.33;1.67;;;8.80;99.90;;;;;;5070132;28;20240;-80
2020/12/27 12:38:33;;;;;;;4.00;1.67;;;8.80;99.90;;;;;;5067762;28;20200;-80
2020/12/27 12:41:01;;;;;;;3.70;1.40;;;8.80;99.90;;;;;;5074086;28;20667;-80
2020/12/27 12:43:30;;;;;;;1.90;1.30;;;8.90;99.90;;;;;;5068559;28;20204;-80
2020/12/27 12:45:57;;;;;;;3.23;2.00;;;8.90;99.90;;;;;;5072020;28;20199;-80
2020/12/27 12:48:24;;;;;;;4.53;2.37;;;9.00;99.90;;;;;;5065059;28;20679;-80
2020/12/27 12:50:50;;;;;;;3.47;1.80;;;9.00;99.90;;;;;;5066534;28;20196;-80
2020/12/27 12:53:17;;;;;;;3.37;1.90;;;9.00;99.90;;;;;;5070653;28;20305;-80
2020/12/27 12:55:43;;;;;;;3.40;1.97;;;9.00;99.90;;;;;;5072826;28;20258;-80
2020/12/27 12:58:10;;;;;;;4.47;2.10;;;9.10;99.90;;;;;;5074181;28;20278;-80
2020/12/27 13:00:37;;;;;;;4.37;1.27;;;9.10;99.90;;;;;;5069035;28;20284;-80